createdAt,value
2018-05-18T00:00:59.157Z,5.80
2018-05-18T00:01:59.135Z,5.00
2018-05-18T00:02:59.113Z,5.40
2018-05-18T00:03:59.094Z,5.70
2018-05-18T00:04:59.077Z,6.80
2018-05-18T00:05:59.073Z,5.30
2018-05-18T00:06:59.036Z,5.30
2018-05-18T00:07:59.019Z,5.20
2018-05-18T00:08:58.998Z,6.00
2018-05-18T00:09:58.978Z,5.10
2018-05-18T00:10:58.977Z,5.30
2018-05-18T00:11:58.941Z,5.40
2018-05-18T00:12:58.922Z,5.20
2018-05-18T00:13:58.901Z,6.00
2018-05-18T00:14:58.882Z,5.20
2018-05-18T00:15:58.875Z,5.60
2018-05-18T00:16:58.845Z,5.50
2018-05-18T00:17:58.823Z,5.00
2018-05-18T00:18:58.803Z,5.70
2018-05-18T00:19:58.800Z,5.00
2018-05-18T00:20:58.778Z,5.00
2018-05-18T00:21:58.745Z,5.90
2018-05-18T00:22:58.726Z,5.20
2018-05-18T00:23:58.708Z,5.80
2018-05-18T00:24:58.687Z,6.00
2018-05-18T00:25:58.675Z,5.90
2018-05-18T00:26:58.657Z,5.80
2018-05-18T00:27:58.627Z,5.50
2018-05-18T00:28:58.610Z,4.80
2018-05-18T00:29:58.589Z,5.70
2018-05-18T00:30:58.569Z,6.30
2018-05-18T00:31:58.578Z,5.30
2018-05-18T00:32:58.530Z,6.10
2018-05-18T00:33:58.511Z,5.30
2018-05-18T00:34:58.490Z,5.30
2018-05-18T00:35:58.470Z,5.40
2018-05-18T00:36:58.452Z,5.40
2018-05-18T00:37:58.442Z,6.00
2018-05-18T00:38:58.412Z,5.30
2018-05-18T00:39:58.480Z,5.80
2018-05-18T00:40:58.373Z,6.70
2018-05-18T00:41:58.354Z,6.20
2018-05-18T00:42:58.345Z,5.60
2018-05-18T00:43:58.317Z,4.90
2018-05-18T00:44:58.295Z,6.60
2018-05-18T00:45:58.276Z,5.40
2018-05-18T00:46:58.256Z,5.60
2018-05-18T00:47:58.245Z,6.40
2018-05-18T00:48:58.216Z,5.70
2018-05-18T00:49:58.196Z,5.50
2018-05-18T00:50:58.176Z,5.80
2018-05-18T00:51:58.153Z,4.70
2018-05-18T00:52:58.149Z,6.10
2018-05-18T00:53:58.119Z,6.30
2018-05-18T00:54:58.096Z,5.70
2018-05-18T00:55:58.077Z,4.90
2018-05-18T00:56:58.057Z,6.10
2018-05-18T00:57:58.037Z,6.00
2018-05-18T00:58:58.028Z,5.40
2018-05-18T00:59:57.996Z,6.30
2018-05-18T01:00:57.977Z,6.10
2018-05-18T01:01:57.958Z,5.60
2018-05-18T01:02:57.937Z,6.00
2018-05-18T01:03:57.938Z,6.20
2018-05-18T01:04:57.898Z,6.10
2018-05-18T01:05:57.881Z,5.70
2018-05-18T01:06:57.858Z,5.40
2018-05-18T01:07:57.839Z,5.50
2018-05-18T01:08:57.819Z,6.10
2018-05-18T01:09:57.815Z,6.60
2018-05-18T01:10:57.776Z,6.10
2018-05-18T01:11:57.759Z,6.00
2018-05-18T01:12:57.740Z,5.40
2018-05-18T01:13:57.722Z,6.30
2018-05-18T01:14:57.706Z,5.50
2018-05-18T01:15:57.779Z,6.20
2018-05-18T01:16:57.660Z,5.90
2018-05-18T01:17:57.640Z,6.40
2018-05-18T01:18:57.621Z,6.20
2018-05-18T01:19:57.600Z,5.90
2018-05-18T01:20:57.590Z,6.10
2018-05-18T01:21:57.564Z,5.50
2018-05-18T01:22:57.541Z,6.30
2018-05-18T01:23:57.527Z,6.10
2018-05-18T01:24:57.501Z,6.60
2018-05-18T01:25:57.498Z,6.50
2018-05-18T01:26:57.461Z,6.20
2018-05-18T01:27:57.441Z,5.70
2018-05-18T01:28:57.422Z,5.70
2018-05-18T01:29:57.407Z,6.10
2018-05-18T01:30:57.392Z,5.90
2018-05-18T01:31:57.362Z,5.70
2018-05-18T01:32:57.345Z,5.90
2018-05-18T01:33:57.328Z,5.30
2018-05-18T01:34:57.303Z,5.60
2018-05-18T01:35:57.310Z,6.10
2018-05-18T01:36:57.265Z,5.60
2018-05-18T01:37:57.244Z,5.40
2018-05-18T01:38:57.224Z,6.10
2018-05-18T01:39:57.207Z,5.90
2018-05-18T01:40:57.185Z,5.30
2018-05-18T01:41:57.436Z,5.50
2018-05-18T01:42:57.145Z,5.30
2018-05-18T01:43:57.125Z,6.10
2018-05-18T01:44:57.105Z,5.40
2018-05-18T01:45:57.087Z,5.60
2018-05-18T01:46:57.065Z,6.50
2018-05-18T01:47:57.060Z,6.30
2018-05-18T01:48:57.027Z,6.60
2018-05-18T01:49:57.007Z,6.80
2018-05-18T01:50:56.987Z,5.70
2018-05-18T01:51:56.970Z,5.70
2018-05-18T01:52:56.959Z,6.00
2018-05-18T01:53:56.930Z,6.50
2018-05-18T01:54:56.907Z,6.00
2018-05-18T01:55:56.891Z,5.90
2018-05-18T01:56:56.869Z,6.10
2018-05-18T01:57:56.863Z,6.60
2018-05-18T01:58:56.829Z,6.00
2018-05-18T01:59:56.809Z,5.60
2018-05-18T02:00:56.792Z,6.80
2018-05-18T02:01:56.776Z,6.60
2018-05-18T02:02:56.761Z,7.20
2018-05-18T02:03:56.733Z,6.20
2018-05-18T02:04:56.713Z,6.20
2018-05-18T02:05:56.695Z,6.80
2018-05-18T02:06:56.672Z,7.00
2018-05-18T02:07:56.934Z,6.30
2018-05-18T02:08:56.634Z,6.00
2018-05-18T02:09:56.613Z,6.40
2018-05-18T02:10:56.594Z,6.30
2018-05-18T02:11:56.576Z,6.90
2018-05-18T02:12:56.555Z,6.20
2018-05-18T02:13:56.551Z,6.30
2018-05-18T02:14:56.515Z,8.00
2018-05-18T02:15:56.497Z,6.70
2018-05-18T02:16:56.478Z,6.50
2018-05-18T02:17:56.457Z,7.80
2018-05-18T02:18:56.438Z,6.90
2018-05-18T02:19:56.428Z,6.00
2018-05-18T02:20:56.399Z,6.10
2018-05-18T02:21:56.381Z,6.10
2018-05-18T02:22:56.360Z,6.30
2018-05-18T02:23:56.339Z,6.30
2018-05-18T02:24:56.333Z,6.50
2018-05-18T02:25:56.308Z,7.20
2018-05-18T02:26:56.283Z,7.20
2018-05-18T02:27:56.262Z,6.50
2018-05-18T02:28:56.247Z,6.20
2018-05-18T02:29:56.234Z,7.00
2018-05-18T02:30:56.204Z,6.60
2018-05-18T02:31:56.184Z,6.50
2018-05-18T02:32:56.167Z,7.10
2018-05-18T02:33:56.146Z,7.00
2018-05-18T02:34:56.150Z,6.70
2018-05-18T02:35:56.107Z,6.90
2018-05-18T02:36:56.087Z,6.80
2018-05-18T02:37:56.066Z,7.60
2018-05-18T02:38:56.049Z,7.90
2018-05-18T02:39:56.030Z,6.70
2018-05-18T02:40:56.033Z,6.60
2018-05-18T02:41:55.989Z,7.80
2018-05-18T02:42:55.967Z,8.00
2018-05-18T02:43:55.949Z,7.60
2018-05-18T02:44:55.939Z,7.80
2018-05-18T02:45:55.918Z,8.20
2018-05-18T02:46:55.903Z,7.60
2018-05-18T02:47:55.875Z,7.50
2018-05-18T02:48:55.853Z,8.70
2018-05-18T02:49:55.834Z,7.90
2018-05-18T02:50:55.814Z,8.80
2018-05-18T02:51:55.807Z,8.50
2018-05-18T02:52:55.773Z,8.20
2018-05-18T02:53:55.754Z,7.00
2018-05-18T02:54:55.740Z,7.90
2018-05-18T02:55:55.714Z,8.90
2018-05-18T02:56:55.708Z,9.30
2018-05-18T02:57:55.675Z,8.30
2018-05-18T02:58:55.658Z,8.70
2018-05-18T02:59:55.639Z,9.30
2018-05-18T03:00:55.617Z,8.90
2018-05-18T03:01:55.615Z,8.00
2018-05-18T03:02:55.577Z,8.40
2018-05-18T03:03:55.559Z,9.20
2018-05-18T03:04:55.538Z,8.20
2018-05-18T03:05:55.523Z,8.30
2018-05-18T03:06:55.501Z,8.80
2018-05-18T03:07:55.495Z,9.20
2018-05-18T03:08:55.461Z,9.20
2018-05-18T03:09:55.441Z,8.90
2018-05-18T03:10:55.422Z,8.40
2018-05-18T03:11:55.403Z,9.10
2018-05-18T03:12:55.385Z,8.10
2018-05-18T03:13:55.376Z,9.70
2018-05-18T03:14:55.348Z,8.40
2018-05-18T03:15:55.329Z,8.60
2018-05-18T03:16:55.304Z,9.30
2018-05-18T03:17:55.285Z,9.30
2018-05-18T03:18:55.275Z,10.50
2018-05-18T03:19:55.248Z,10.30
2018-05-18T03:20:55.276Z,9.30
2018-05-18T03:21:55.206Z,9.50
2018-05-18T03:22:55.187Z,10.70
2018-05-18T03:23:55.179Z,10.80
2018-05-18T03:24:55.148Z,11.10
2018-05-18T03:25:55.129Z,11.10
2018-05-18T03:26:55.108Z,11.20
2018-05-18T03:27:55.090Z,11.50
2018-05-18T03:28:55.090Z,11.40
2018-05-18T03:29:55.054Z,12.40
2018-05-18T03:30:55.031Z,11.90
2018-05-18T03:31:55.017Z,12.00
2018-05-18T03:32:54.992Z,11.70
2018-05-18T03:33:54.973Z,12.70
2018-05-18T03:34:54.971Z,11.90
2018-05-18T03:35:54.934Z,12.00
2018-05-18T03:36:54.915Z,12.10
2018-05-18T03:37:54.896Z,11.70
2018-05-18T03:38:54.875Z,13.00
2018-05-18T03:39:54.856Z,14.20
2018-05-18T03:40:54.855Z,14.30
2018-05-18T03:41:54.820Z,14.40
2018-05-18T03:42:54.797Z,15.50
2018-05-18T03:43:54.779Z,15.10
2018-05-18T03:44:54.785Z,17.30
2018-05-18T03:45:54.752Z,17.60
2018-05-18T03:46:54.722Z,21.90
2018-05-18T03:47:54.702Z,24.90
2018-05-18T03:48:54.683Z,24.50
2018-05-18T03:49:54.663Z,24.00
2018-05-18T03:50:54.660Z,21.10
2018-05-18T03:51:54.622Z,20.90
2018-05-18T03:52:54.604Z,22.00
2018-05-18T03:53:54.585Z,20.20
2018-05-18T03:54:54.566Z,19.40
2018-05-18T03:55:54.547Z,19.20
2018-05-18T03:56:54.544Z,17.90
2018-05-18T03:57:54.508Z,18.80
2018-05-18T03:58:54.489Z,18.90
2018-05-18T03:59:54.467Z,18.60
2018-05-18T04:00:54.449Z,17.90
2018-05-18T04:01:54.433Z,19.10
2018-05-18T04:02:54.420Z,19.60
2018-05-18T04:03:54.392Z,18.90
2018-05-18T04:04:54.370Z,19.90
2018-05-18T04:05:54.354Z,20.10
2018-05-18T04:06:54.337Z,21.20
2018-05-18T04:07:54.350Z,21.20
2018-05-18T04:08:54.293Z,21.60
2018-05-18T04:09:54.276Z,21.80
2018-05-18T04:10:54.258Z,20.30
2018-05-18T04:11:54.237Z,20.90
2018-05-18T04:12:54.232Z,20.50
2018-05-18T04:13:54.197Z,20.00
2018-05-18T04:14:54.179Z,21.40
2018-05-18T04:15:54.171Z,23.90
2018-05-18T04:16:54.141Z,21.60
2018-05-18T04:17:54.123Z,21.20
2018-05-18T04:18:54.111Z,21.90
2018-05-18T04:19:54.177Z,22.70
2018-05-18T04:20:54.064Z,22.40
2018-05-18T04:21:54.050Z,23.60
2018-05-18T04:22:54.027Z,23.50
2018-05-18T04:23:54.021Z,24.80
2018-05-18T04:24:53.987Z,22.20
2018-05-18T04:25:53.968Z,24.00
2018-05-18T04:26:53.947Z,23.20
2018-05-18T04:27:53.928Z,23.70
2018-05-18T04:28:53.911Z,22.70
2018-05-18T04:29:53.908Z,22.90
2018-05-18T04:30:53.872Z,21.70
2018-05-18T04:31:53.854Z,24.20
2018-05-18T04:32:53.837Z,22.30
2018-05-18T04:33:53.817Z,21.40
2018-05-18T04:34:53.796Z,22.80
2018-05-18T04:35:53.786Z,21.70
2018-05-18T04:36:53.758Z,20.90
2018-05-18T04:37:53.736Z,21.00
2018-05-18T04:38:53.718Z,21.10
2018-05-18T04:39:53.697Z,21.00
2018-05-18T04:40:53.690Z,20.80
2018-05-18T04:41:53.663Z,20.70
2018-05-18T04:42:53.641Z,19.80
2018-05-18T04:43:53.620Z,21.40
2018-05-18T04:44:53.603Z,20.50
2018-05-18T04:45:53.596Z,19.90
2018-05-18T04:46:53.565Z,19.40
2018-05-18T04:47:53.546Z,19.40
2018-05-18T04:48:53.527Z,19.40
2018-05-18T04:49:53.511Z,19.70
2018-05-18T04:50:53.508Z,18.90
2018-05-18T04:51:53.467Z,18.20
2018-05-18T04:52:53.454Z,21.40
2018-05-18T04:53:53.436Z,21.70
2018-05-18T04:54:53.411Z,22.20
2018-05-18T04:55:53.402Z,22.90
2018-05-18T04:56:53.372Z,24.30
2018-05-18T04:57:53.358Z,22.30
2018-05-18T04:58:53.405Z,23.90
2018-05-18T04:59:53.315Z,25.00
2018-05-18T05:00:53.312Z,27.60
2018-05-18T05:01:53.282Z,29.90
2018-05-18T05:02:53.257Z,29.50
2018-05-18T05:03:53.239Z,29.20
2018-05-18T05:04:53.221Z,29.00
2018-05-18T05:05:53.201Z,28.90
2018-05-18T05:06:53.193Z,30.90
2018-05-18T05:07:53.162Z,29.20
2018-05-18T05:08:53.147Z,27.80
2018-05-18T05:09:53.128Z,29.10
2018-05-18T05:10:53.109Z,30.30
2018-05-18T05:11:53.101Z,31.70
2018-05-18T05:12:53.066Z,30.90
2018-05-18T05:13:53.048Z,32.30
2018-05-18T05:14:53.030Z,29.40
2018-05-18T05:15:53.011Z,30.80
2018-05-18T05:16:52.993Z,29.80
2018-05-18T05:17:52.986Z,29.30
2018-05-18T05:18:52.952Z,30.90
2018-05-18T05:19:52.933Z,32.60
2018-05-18T05:20:52.914Z,32.10
2018-05-18T05:21:52.897Z,34.50
2018-05-18T05:22:52.893Z,30.70
2018-05-18T05:23:52.858Z,29.40
2018-05-18T05:24:52.839Z,30.30
2018-05-18T05:25:52.819Z,30.60
2018-05-18T05:26:52.798Z,29.00
2018-05-18T05:27:52.791Z,28.90
2018-05-18T05:28:52.825Z,27.40
2018-05-18T05:29:52.743Z,27.20
2018-05-18T05:30:52.724Z,27.50
2018-05-18T05:31:52.707Z,28.10
2018-05-18T05:32:52.700Z,27.50
2018-05-18T05:33:52.668Z,27.70
2018-05-18T05:34:52.647Z,24.60
2018-05-18T05:35:52.629Z,23.80
2018-05-18T05:36:52.609Z,23.80
2018-05-18T05:37:52.593Z,23.80
2018-05-18T05:38:52.580Z,22.00
2018-05-18T05:39:52.551Z,23.00
2018-05-18T05:40:52.554Z,22.90
2018-05-18T05:41:52.515Z,22.40
2018-05-18T05:42:52.494Z,21.00
2018-05-18T05:43:52.486Z,15.30
2018-05-18T05:44:52.457Z,19.00
2018-05-18T05:45:52.441Z,16.00
2018-05-18T05:46:52.420Z,20.00
2018-05-18T05:47:52.402Z,20.50
2018-05-18T05:48:52.403Z,21.10
2018-05-18T05:49:52.363Z,19.20
2018-05-18T05:50:52.345Z,19.70
2018-05-18T05:51:52.323Z,19.40
2018-05-18T05:52:52.342Z,18.50
2018-05-18T05:53:52.311Z,19.70
2018-05-18T05:54:52.265Z,20.60
2018-05-18T05:55:52.247Z,19.60
2018-05-18T05:56:52.228Z,19.50
2018-05-18T05:57:52.214Z,19.40
2018-05-18T05:58:52.189Z,19.20
2018-05-18T05:59:52.181Z,18.70
2018-05-18T06:00:52.154Z,16.00
2018-05-18T06:01:52.137Z,15.90
2018-05-18T06:02:52.115Z,12.60
2018-05-18T06:03:52.100Z,13.50
2018-05-18T06:04:52.090Z,12.50
2018-05-18T06:05:52.059Z,11.70
2018-05-18T06:06:52.039Z,11.70
2018-05-18T06:07:52.021Z,10.00
2018-05-18T06:08:52.002Z,10.30
2018-05-18T06:09:52.000Z,11.40
2018-05-18T06:10:51.964Z,12.40
2018-05-18T06:11:51.988Z,12.10
2018-05-18T06:12:51.926Z,12.60
2018-05-18T06:13:51.908Z,12.40
2018-05-18T06:14:51.890Z,12.10
2018-05-18T06:15:51.881Z,11.00
2018-05-18T06:16:51.851Z,13.50
2018-05-18T06:17:51.834Z,12.90
2018-05-18T06:18:51.814Z,11.70
2018-05-18T06:19:51.796Z,12.60
2018-05-18T06:20:51.798Z,13.30
2018-05-18T06:21:51.758Z,13.00
2018-05-18T06:22:51.737Z,12.50
2018-05-18T06:23:51.723Z,13.90
2018-05-18T06:24:51.702Z,14.00
2018-05-18T06:25:51.682Z,15.30
2018-05-18T06:26:51.676Z,14.30
2018-05-18T06:27:51.649Z,16.10
2018-05-18T06:28:51.624Z,16.50
2018-05-18T06:29:51.608Z,20.30
2018-05-18T06:30:51.587Z,22.10
2018-05-18T06:31:51.578Z,21.10
2018-05-18T06:32:51.552Z,17.10
2018-05-18T06:33:51.533Z,17.50
2018-05-18T06:34:51.566Z,18.00
2018-05-18T06:35:51.498Z,18.40
2018-05-18T06:36:51.486Z,19.00
2018-05-18T06:37:51.461Z,18.80
2018-05-18T06:38:51.439Z,19.60
2018-05-18T06:39:51.418Z,21.60
2018-05-18T06:40:51.404Z,22.00
2018-05-18T06:41:51.395Z,24.00
2018-05-18T06:42:51.361Z,25.10
2018-05-18T06:43:51.348Z,24.90
2018-05-18T06:44:51.328Z,24.40
2018-05-18T06:45:51.309Z,24.50
2018-05-18T06:46:51.315Z,21.30
2018-05-18T06:47:51.271Z,21.50
2018-05-18T06:48:51.253Z,17.60
2018-05-18T06:49:51.232Z,20.20
2018-05-18T06:50:51.212Z,21.30
2018-05-18T06:51:51.193Z,19.10
2018-05-18T06:52:51.191Z,19.30
2018-05-18T06:53:51.157Z,19.00
2018-05-18T06:54:51.136Z,16.10
2018-05-18T06:55:51.120Z,16.60
2018-05-18T06:56:51.103Z,15.90
2018-05-18T06:57:51.097Z,17.30
2018-05-18T06:58:51.084Z,13.40
2018-05-18T06:59:51.046Z,18.50
2018-05-18T07:00:51.029Z,17.90
2018-05-18T07:01:51.014Z,19.80
2018-05-18T07:02:51.004Z,20.20
2018-05-18T07:03:50.972Z,21.40
2018-05-18T07:04:50.955Z,24.10
2018-05-18T07:05:50.937Z,23.70
2018-05-18T07:06:50.918Z,22.50
2018-05-18T07:07:50.911Z,24.70
2018-05-18T07:08:50.883Z,23.10
2018-05-18T07:09:50.863Z,22.90
2018-05-18T07:10:50.846Z,21.30
2018-05-18T07:11:50.825Z,24.90
2018-05-18T07:12:50.818Z,25.40
2018-05-18T07:13:50.792Z,27.00
2018-05-18T07:14:50.773Z,29.30
2018-05-18T07:15:50.759Z,31.50
2018-05-18T07:16:50.736Z,30.60
2018-05-18T07:17:50.725Z,28.80
2018-05-18T07:18:50.698Z,32.70
2018-05-18T07:19:50.678Z,30.60
2018-05-18T07:20:50.660Z,32.90
2018-05-18T07:21:50.645Z,32.90
2018-05-18T07:22:50.639Z,31.70
2018-05-18T07:23:50.604Z,28.20
2018-05-18T07:24:50.584Z,31.70
2018-05-18T07:25:50.569Z,31.70
2018-05-18T07:26:50.550Z,29.80
2018-05-18T07:27:50.532Z,32.50
2018-05-18T07:28:50.532Z,30.40
2018-05-18T07:29:50.496Z,31.60
2018-05-18T07:30:50.479Z,30.10
2018-05-18T07:31:50.459Z,30.90
2018-05-18T07:32:50.441Z,31.10
2018-05-18T07:33:50.422Z,27.00
2018-05-18T07:34:50.417Z,28.90
2018-05-18T07:35:50.385Z,28.30
2018-05-18T07:36:50.368Z,30.00
2018-05-18T07:37:50.350Z,29.70
2018-05-18T07:38:50.330Z,27.00
2018-05-18T07:39:50.324Z,30.70
2018-05-18T07:40:50.295Z,30.60
2018-05-18T07:41:50.277Z,30.30
2018-05-18T07:42:50.259Z,29.60
2018-05-18T07:43:50.299Z,30.70
2018-05-18T07:44:50.244Z,30.30
2018-05-18T07:45:50.204Z,30.80
2018-05-18T07:46:50.186Z,31.10
2018-05-18T07:47:50.171Z,31.80
2018-05-18T07:48:50.150Z,32.20
2018-05-18T07:49:50.131Z,33.40
2018-05-18T07:50:50.124Z,33.00
2018-05-18T07:51:50.099Z,31.70
2018-05-18T07:52:50.082Z,32.20
2018-05-18T07:53:50.060Z,32.90
2018-05-18T07:54:50.043Z,33.10
2018-05-18T07:55:50.035Z,30.60
2018-05-18T07:56:50.006Z,32.30
2018-05-18T07:57:49.990Z,31.60
2018-05-18T07:58:49.972Z,32.10
2018-05-18T07:59:49.952Z,33.30
2018-05-18T08:00:49.974Z,32.30
2018-05-18T08:01:49.919Z,32.10
2018-05-18T08:02:49.900Z,32.50
2018-05-18T08:03:49.883Z,29.30
2018-05-18T08:04:49.867Z,31.60
2018-05-18T08:05:49.847Z,32.30
2018-05-18T08:06:49.844Z,32.10
2018-05-18T08:07:49.835Z,32.70
2018-05-18T08:08:49.794Z,32.50
2018-05-18T08:09:49.777Z,30.00
2018-05-18T08:10:49.759Z,30.30
2018-05-18T08:11:49.752Z,32.20
2018-05-18T08:12:49.725Z,34.00
2018-05-18T08:13:49.704Z,31.20
2018-05-18T08:14:49.687Z,30.60
2018-05-18T08:15:49.671Z,27.70
2018-05-18T08:16:49.664Z,32.40
2018-05-18T08:17:49.635Z,32.00
2018-05-18T08:18:49.617Z,30.60
2018-05-18T08:19:49.601Z,31.40
2018-05-18T08:20:49.582Z,30.30
2018-05-18T08:21:49.579Z,29.60
2018-05-18T08:22:49.547Z,29.60
2018-05-18T08:23:49.530Z,21.80
2018-05-18T08:24:49.512Z,29.70
2018-05-18T08:25:49.496Z,31.90
2018-05-18T08:26:49.477Z,29.20
2018-05-18T08:27:49.471Z,30.90
2018-05-18T08:28:49.488Z,29.80
2018-05-18T08:29:49.426Z,30.10
2018-05-18T08:30:49.407Z,30.60
2018-05-18T08:31:49.389Z,27.90
2018-05-18T08:32:49.388Z,30.60
2018-05-18T08:33:49.356Z,28.80
2018-05-18T08:34:49.338Z,28.30
2018-05-18T08:35:49.321Z,29.50
2018-05-18T08:36:49.306Z,29.50
2018-05-18T08:37:49.307Z,29.70
2018-05-18T08:38:49.270Z,28.50
2018-05-18T08:39:49.255Z,27.90
2018-05-18T08:40:49.239Z,27.70
2018-05-18T08:41:49.228Z,28.70
2018-05-18T08:42:49.206Z,23.80
2018-05-18T08:43:49.197Z,26.50
2018-05-18T08:44:49.172Z,26.10
2018-05-18T08:45:49.154Z,24.90
2018-05-18T08:46:49.138Z,27.30
2018-05-18T08:47:49.122Z,26.70
2018-05-18T08:48:49.118Z,25.50
2018-05-18T08:49:49.089Z,27.00
2018-05-18T08:50:49.070Z,26.70
2018-05-18T08:51:49.057Z,27.20
2018-05-18T08:52:49.041Z,25.50
2018-05-18T08:53:49.039Z,25.90
2018-05-18T08:54:49.006Z,23.90
2018-05-18T08:55:48.990Z,24.30
2018-05-18T08:56:48.973Z,24.60
2018-05-18T08:57:48.957Z,26.00
2018-05-18T08:58:48.943Z,24.00
2018-05-18T08:59:48.940Z,25.20
2018-05-18T09:00:48.907Z,24.20
2018-05-18T09:01:48.890Z,23.20
2018-05-18T09:02:48.874Z,23.90
2018-05-18T09:03:48.860Z,23.70
2018-05-18T09:04:48.863Z,23.40
2018-05-18T09:05:48.825Z,22.90
2018-05-18T09:06:48.808Z,22.50
2018-05-18T09:07:48.792Z,22.20
2018-05-18T09:08:48.858Z,23.80
2018-05-18T09:09:48.762Z,21.90
2018-05-18T09:10:48.756Z,22.80
2018-05-18T09:11:48.729Z,22.90
2018-05-18T09:12:48.711Z,22.40
2018-05-18T09:13:48.694Z,22.20
2018-05-18T09:14:48.676Z,21.60
2018-05-18T09:15:48.682Z,20.80
2018-05-18T09:16:48.646Z,22.10
2018-05-18T09:17:48.629Z,20.70
2018-05-18T09:18:48.613Z,21.20
2018-05-18T09:19:48.596Z,20.80
2018-05-18T09:20:48.579Z,21.80
2018-05-18T09:21:48.574Z,21.50
2018-05-18T09:22:48.547Z,20.60
2018-05-18T09:23:48.531Z,22.30
2018-05-18T09:24:48.517Z,20.40
2018-05-18T09:25:48.499Z,21.30
2018-05-18T09:26:48.493Z,17.40
2018-05-18T09:27:48.467Z,21.30
2018-05-18T09:28:48.451Z,21.60
2018-05-18T09:29:48.435Z,20.80
2018-05-18T09:30:48.418Z,20.70
2018-05-18T09:31:48.412Z,21.50
2018-05-18T09:32:48.386Z,22.20
2018-05-18T09:33:48.453Z,20.80
2018-05-18T09:34:48.351Z,22.20
2018-05-18T09:35:48.337Z,21.30
2018-05-18T09:36:48.342Z,21.40
2018-05-18T09:37:48.304Z,21.10
2018-05-18T09:38:48.289Z,21.70
2018-05-18T09:39:48.344Z,22.80
2018-05-18T09:40:48.255Z,21.50
2018-05-18T09:41:48.243Z,20.70
2018-05-18T09:42:48.235Z,21.50
2018-05-18T09:43:48.208Z,21.70
2018-05-18T09:44:48.195Z,21.50
2018-05-18T09:45:48.179Z,22.70
2018-05-18T09:46:48.159Z,17.40
2018-05-18T09:47:48.159Z,20.60
2018-05-18T09:48:48.128Z,22.10
2018-05-18T09:49:48.115Z,23.40
2018-05-18T09:50:48.096Z,23.30
2018-05-18T09:51:48.077Z,22.20
2018-05-18T09:52:48.065Z,24.10
2018-05-18T09:53:48.062Z,24.40
2018-05-18T09:54:48.176Z,23.70
2018-05-18T09:55:48.016Z,23.40
2018-05-18T09:56:48.001Z,25.20
2018-05-18T09:57:47.986Z,22.60
2018-05-18T09:58:47.979Z,24.40
2018-05-18T09:59:47.954Z,24.50
2018-05-18T10:00:47.959Z,24.00
2018-05-18T10:01:47.921Z,24.80
2018-05-18T10:02:47.906Z,24.30
2018-05-18T10:03:47.906Z,25.40
2018-05-18T10:04:47.874Z,22.50
2018-05-18T10:05:47.859Z,23.90
2018-05-18T10:06:47.845Z,24.90
2018-05-18T10:07:47.825Z,24.30
2018-05-18T10:08:47.829Z,25.00
2018-05-18T10:09:47.797Z,23.90
2018-05-18T10:10:47.781Z,23.20
2018-05-18T10:11:47.763Z,21.80
2018-05-18T10:12:47.750Z,23.10
2018-05-18T10:13:47.762Z,23.80
2018-05-18T10:14:47.717Z,23.30
2018-05-18T10:15:47.703Z,23.80
2018-05-18T10:16:47.684Z,21.90
2018-05-18T10:17:47.672Z,22.80
2018-05-18T10:18:47.668Z,22.50
2018-05-18T10:19:47.637Z,21.70
2018-05-18T10:20:47.624Z,23.50
2018-05-18T10:21:47.611Z,20.60
2018-05-18T10:22:47.592Z,23.00
2018-05-18T10:23:47.589Z,22.00
2018-05-18T10:24:47.564Z,21.70
2018-05-18T10:25:47.545Z,19.40
2018-05-18T10:26:47.530Z,19.50
2018-05-18T10:27:47.515Z,19.00
2018-05-18T10:28:47.505Z,21.30
2018-05-18T10:29:47.483Z,20.60
2018-05-18T10:30:47.466Z,18.90
2018-05-18T10:31:47.451Z,19.50
2018-05-18T10:32:47.502Z,18.30
2018-05-18T10:33:47.431Z,18.90
2018-05-18T10:34:47.404Z,18.80
2018-05-18T10:35:47.388Z,15.40
2018-05-18T10:36:47.375Z,18.60
2018-05-18T10:37:47.358Z,18.10
2018-05-18T10:38:47.351Z,17.20
2018-05-18T10:39:47.328Z,17.70
2018-05-18T10:40:47.313Z,17.30
2018-05-18T10:41:47.297Z,16.70
2018-05-18T10:42:47.281Z,18.40
2018-05-18T10:43:47.282Z,18.00
2018-05-18T10:44:47.251Z,14.70
2018-05-18T10:45:47.238Z,16.60
2018-05-18T10:46:47.219Z,15.20
2018-05-18T10:47:47.205Z,13.90
2018-05-18T10:48:47.195Z,17.30
2018-05-18T10:49:47.195Z,16.70
2018-05-18T10:50:47.156Z,15.00
2018-05-18T10:51:47.145Z,14.60
2018-05-18T10:52:47.131Z,16.40
2018-05-18T10:53:47.115Z,16.10
2018-05-18T10:54:47.123Z,16.60
2018-05-18T10:55:47.083Z,17.10
2018-05-18T10:56:47.068Z,17.20
2018-05-18T10:57:47.055Z,16.80
2018-05-18T10:58:47.041Z,17.40
2018-05-18T10:59:47.023Z,17.10
2018-05-18T11:00:47.018Z,16.50
2018-05-18T11:01:46.995Z,15.90
2018-05-18T11:02:46.979Z,16.30
2018-05-18T11:03:46.962Z,15.00
2018-05-18T11:04:46.949Z,15.70
2018-05-18T11:05:46.944Z,14.60
2018-05-18T11:06:46.919Z,14.80
2018-05-18T11:07:46.903Z,15.50
2018-05-18T11:08:46.893Z,14.40
2018-05-18T11:09:46.874Z,14.50
2018-05-18T11:10:46.872Z,14.20
2018-05-18T11:11:46.847Z,13.70
2018-05-18T11:12:46.831Z,13.40
2018-05-18T11:13:46.815Z,14.90
2018-05-18T11:14:46.801Z,14.20
2018-05-18T11:15:46.786Z,15.80
2018-05-18T11:16:46.783Z,13.20
2018-05-18T11:17:46.761Z,13.60
2018-05-18T11:18:46.743Z,12.90
2018-05-18T11:19:46.728Z,13.80
2018-05-18T11:20:46.715Z,13.60
2018-05-18T11:21:46.711Z,13.20
2018-05-18T11:22:46.689Z,13.80
2018-05-18T11:23:46.673Z,13.70
2018-05-18T11:24:46.657Z,13.40
2018-05-18T11:25:46.642Z,14.20
2018-05-18T11:26:46.641Z,13.80
2018-05-18T11:27:46.615Z,13.90
2018-05-18T11:28:46.600Z,14.40
2018-05-18T11:29:46.586Z,14.50
2018-05-18T11:30:46.575Z,12.80
2018-05-18T11:31:46.573Z,12.40
2018-05-18T11:32:46.543Z,13.70
2018-05-18T11:33:46.529Z,13.10
2018-05-18T11:34:46.513Z,14.50
2018-05-18T11:35:46.501Z,13.90
2018-05-18T11:36:46.487Z,13.60
2018-05-18T11:37:46.481Z,14.20
2018-05-18T11:38:46.459Z,13.30
2018-05-18T11:39:46.444Z,14.40
2018-05-18T11:40:46.430Z,14.80
2018-05-18T11:41:46.418Z,13.60
2018-05-18T11:42:46.411Z,13.30
2018-05-18T11:43:46.388Z,12.30
2018-05-18T11:44:46.376Z,12.40
2018-05-18T11:45:46.365Z,12.20
2018-05-18T11:46:46.346Z,13.20
2018-05-18T11:47:46.341Z,11.30
2018-05-18T11:48:46.315Z,12.30
2018-05-18T11:49:46.302Z,12.70
2018-05-18T11:50:46.288Z,11.70
2018-05-18T11:51:46.275Z,13.20
2018-05-18T11:52:46.275Z,12.20
2018-05-18T11:53:46.247Z,11.40
2018-05-18T11:54:46.246Z,12.50
2018-05-18T11:55:46.219Z,12.50
2018-05-18T11:56:46.205Z,11.30
2018-05-18T11:57:46.191Z,11.10
2018-05-18T11:58:46.188Z,10.30
2018-05-18T11:59:46.164Z,10.80
2018-05-18T12:00:46.149Z,11.30
2018-05-18T12:01:46.136Z,10.20
2018-05-18T12:02:46.166Z,9.80
2018-05-18T12:03:46.124Z,10.20
2018-05-18T12:04:46.094Z,9.60
2018-05-18T12:05:46.081Z,10.40
2018-05-18T12:06:46.064Z,10.90
2018-05-18T12:07:46.052Z,9.80
2018-05-18T12:08:46.040Z,9.50
2018-05-18T12:09:46.035Z,7.30
2018-05-18T12:10:46.011Z,9.20
2018-05-18T12:11:45.996Z,9.50
2018-05-18T12:12:45.984Z,9.80
2018-05-18T12:13:45.974Z,9.70
2018-05-18T12:14:45.973Z,8.80
2018-05-18T12:15:45.947Z,9.30
2018-05-18T12:16:45.930Z,9.00
2018-05-18T12:17:45.915Z,9.10
2018-05-18T12:18:45.903Z,9.40
2018-05-18T12:19:45.898Z,9.30
2018-05-18T12:20:45.876Z,9.30
2018-05-18T12:21:45.863Z,9.60
2018-05-18T12:22:45.848Z,9.40
2018-05-18T12:23:45.836Z,9.60
2018-05-18T12:24:45.837Z,9.40
2018-05-18T12:25:45.810Z,8.60
2018-05-18T12:26:45.794Z,9.20
2018-05-18T12:27:45.781Z,10.30
2018-05-18T12:28:45.769Z,10.60
2018-05-18T12:29:45.774Z,10.00
2018-05-18T12:30:45.742Z,9.40
2018-05-18T12:31:45.727Z,9.30
2018-05-18T12:32:45.715Z,9.80
2018-05-18T12:33:45.713Z,8.00
2018-05-18T12:34:45.686Z,7.50
2018-05-18T12:35:45.685Z,8.50
2018-05-18T12:36:45.663Z,8.60
2018-05-18T12:37:45.650Z,9.10
2018-05-18T12:38:45.635Z,8.80
2018-05-18T12:39:45.623Z,8.90
2018-05-18T12:40:45.621Z,8.80
2018-05-18T12:41:45.597Z,10.40
2018-05-18T12:42:45.582Z,8.90
2018-05-18T12:43:45.571Z,8.70
2018-05-18T12:44:45.631Z,7.50
2018-05-18T12:45:45.568Z,8.10
2018-05-18T12:46:45.529Z,8.10
2018-05-18T12:47:45.517Z,6.90
2018-05-18T12:48:45.505Z,7.60
2018-05-18T12:49:45.493Z,8.10
2018-05-18T12:50:45.477Z,8.40
2018-05-18T12:51:45.482Z,8.00
2018-05-18T12:52:45.453Z,8.30
2018-05-18T12:53:45.439Z,7.50
2018-05-18T12:54:45.427Z,5.40
2018-05-18T12:55:45.415Z,6.60
2018-05-18T12:56:45.413Z,7.10
2018-05-18T12:57:45.400Z,6.60
2018-05-18T12:58:45.377Z,7.40
2018-05-18T12:59:45.365Z,7.00
2018-05-18T13:00:45.350Z,6.50